Terminal Aerodrome Forecast
Issued by NWS Charleston, WV

Current Version | Previous Version | Graphics & Text | Print | Product List | Glossary On
Versions: 1 2 3 4 5 6 7 8 9 10 11 12 13 14 15 16 17 18 19 20 21 22 23 24 25
951
FTUS41 KRLX 221744 AAA
TAFHTS
TAF AMD
KHTS 221744Z 2218/2318 23010G17KT P6SM VCTS BKN050CB
      TEMPO 2221/2224 4SM TSRA BR OVC025CB
     FM230000 22007KT 4SM +SHRA BR VCTS OVC035CB
      TEMPO 2300/2303 1SM +TSRA BR OVC015CB
     FM230300 00000KT P6SM OVC015
     FM230800 33004KT 4SM BR BKN035
     FM231300 35004KT P6SM SCT015
     FM231600 35004KT P6SM FEW250=

USA.gov is the U.S. government's official web portal to all federal, state and local government web resources and services.